Time;durP1;ratioP1;P1;durP2;ratioP2;P2;SDS_P1;SDS_P2;PMS_P1;PMS_P2;Temp;Humidity;BMP_temperature;BMP_pressure;BME280_temperature;BME280_humidity;BME280_pressure;Samples;Min_cycle;Max_cycle;Signal;HPM_P1;HPM_P2
2022/05/12 00:01:44;;;;;;;7.63;1.95;;;;;;;10.39;100.00;101548.03;7379498;19;20014;-75
2022/05/12 00:04:16;;;;;;;4.28;2.10;;;;;;;10.34;100.00;101540.91;7378624;19;20049;-75
2022/05/12 00:06:46;;;;;;;6.80;2.30;;;;;;;10.34;100.00;101548.78;7378986;19;20050;-75
2022/05/12 00:09:15;;;;;;;7.93;2.13;;;;;;;10.27;100.00;101547.72;7378402;19;20044;-75
2022/05/12 00:11:45;;;;;;;7.57;2.53;;;;;;;10.25;100.00;101544.19;7378930;19;20370;-74
2022/05/12 00:14:16;;;;;;;5.63;2.08;;;;;;;10.25;100.00;101553.78;7374366;19;20014;-75
2022/05/12 00:16:46;;;;;;;7.95;2.47;;;;;;;10.23;100.00;101555.47;7372857;19;20479;-75
2022/05/12 00:19:18;;;;;;;4.05;1.92;;;;;;;10.21;100.00;101557.16;7375841;19;20025;-75
2022/05/12 00:21:48;;;;;;;7.55;2.95;;;;;;;10.18;100.00;101559.66;7374381;19;20010;-75
2022/05/12 00:24:19;;;;;;;7.47;2.28;;;;;;;10.13;100.00;101567.41;7375514;19;20491;-74
2022/05/12 00:26:49;;;;;;;8.13;2.33;;;;;;;10.12;100.00;101571.78;7378156;19;20025;-73
2022/05/12 00:29:19;;;;;;;6.47;2.33;;;;;;;10.07;100.00;101570.75;7376599;19;20133;-74
2022/05/12 00:31:50;;;;;;;9.30;2.88;;;;;;;10.03;100.00;101571.53;7378548;19;20006;-74
2022/05/12 00:34:23;;;;;;;11.05;2.58;;;;;;;10.03;100.00;101579.38;7373007;19;20013;-74
2022/05/12 00:36:53;;;;;;;6.20;2.47;;;;;;;10.00;100.00;101581.03;7375408;19;20345;-74
2022/05/12 00:39:23;;;;;;;6.40;2.60;;;;;;;9.93;100.00;101577.34;7375668;19;20018;-74
2022/05/12 00:41:53;;;;;;;8.27;3.30;;;;;;;9.90;100.00;101584.25;7374106;19;20353;-74
2022/05/12 00:44:23;;;;;;;12.18;3.80;;;;;;;9.87;100.00;101592.91;7377951;19;20014;-75
2022/05/12 00:46:53;;;;;;;8.75;3.65;;;;;;;9.86;100.00;101580.66;7374720;19;20122;-75
2022/05/12 00:49:30;;;;;;;9.70;3.65;;;;;;;9.85;100.00;101589.34;7376249;19;20021;-74
2022/05/12 00:52:06;;;;;;;8.27;3.40;;;;;;;9.82;100.00;101584.91;7372353;19;20011;-74
2022/05/12 00:54:41;;;;;;;7.20;3.22;;;;;;;9.81;100.00;101584.88;7376726;19;20014;-74
2022/05/12 00:57:13;;;;;;;7.28;3.70;;;;;;;9.78;100.00;101576.94;7373865;19;20006;-74
2022/05/12 00:59:44;;;;;;;10.25;3.55;;;;;;;9.76;100.00;101579.50;7376068;19;20078;-74
2022/05/12 01:02:18;;;;;;;8.20;4.57;;;;;;;9.76;100.00;101583.84;7373870;19;20022;-73
2022/05/12 01:04:51;;;;;;;8.65;3.85;;;;;;;9.74;100.00;101586.44;7374829;19;20014;-74
2022/05/12 01:07:21;;;;;;;11.27;4.00;;;;;;;9.71;100.00;101585.47;7374276;19;20396;-73
2022/05/12 01:09:51;;;;;;;8.35;3.47;;;;;;;9.69;100.00;101580.16;7374948;19;20018;-75
2022/05/12 01:12:22;;;;;;;8.38;3.47;;;;;;;9.66;100.00;101576.59;7372033;19;20022;-74
2022/05/12 01:14:51;;;;;;;11.18;3.17;;;;;;;9.68;100.00;101595.84;7374207;19;20032;-73
2022/05/12 01:17:23;;;;;;;6.05;3.15;;;;;;;9.65;100.00;101593.13;7374513;19;20019;-75
2022/05/12 01:19:55;;;;;;;9.32;4.00;;;;;;;9.63;100.00;101603.56;7375156;19;20038;-74
2022/05/12 01:22:37;;;;;;;7.47;3.25;;;;;;;9.62;100.00;101600.91;7373891;19;20027;-74
2022/05/12 01:25:14;;;;;;;7.47;3.05;;;;;;;9.60;100.00;101597.34;7375203;19;20430;-73
2022/05/12 01:27:44;;;;;;;7.45;3.45;;;;;;;9.56;100.00;101608.59;7369823;19;20014;-73
2022/05/12 01:30:17;;;;;;;6.78;3.30;;;;;;;9.52;100.00;101603.25;7372311;19;20045;-74
2022/05/12 01:32:48;;;;;;;6.93;3.15;;;;;;;9.56;100.00;101595.50;7370120;19;20018;-74
2022/05/12 01:35:21;;;;;;;7.72;2.75;;;;;;;9.54;100.00;101603.28;7373768;19;21835;-74
2022/05/12 01:37:51;;;;;;;5.18;3.08;;;;;;;9.56;100.00;101608.59;7372154;19;20014;-73
2022/05/12 01:40:25;;;;;;;7.88;3.30;;;;;;;9.53;100.00;101617.22;7374871;19;20403;-73
2022/05/12 01:42:56;;;;;;;5.68;2.80;;;;;;;9.51;100.00;101618.91;7382505;19;20410;-66
2022/05/12 01:45:26;;;;;;;7.07;3.13;;;;;;;9.54;100.00;101620.75;7380226;19;20015;-67
2022/05/12 01:47:56;;;;;;;6.72;3.22;;;;;;;9.54;100.00;101615.50;7379761;19;20070;-67
2022/05/12 01:50:26;;;;;;;7.13;3.35;;;;;;;9.51;100.00;101617.19;7381502;19;20443;-67
2022/05/12 01:52:56;;;;;;;8.35;3.20;;;;;;;9.46;100.00;101629.25;7370764;19;20047;-67
2022/05/12 01:55:28;;;;;;;7.97;3.25;;;;;;;9.46;100.00;101629.25;7382699;19;20492;-67
2022/05/12 01:57:58;;;;;;;11.00;3.42;;;;;;;9.46;100.00;101625.75;7382798;19;20385;-67
2022/05/12 02:00:31;;;;;;;9.45;4.07;;;;;;;9.51;100.00;101627.66;7376956;19;20455;-67
2022/05/12 02:03:02;;;;;;;7.60;3.72;;;;;;;9.54;100.00;101628.59;7382500;19;20015;-67
2022/05/12 02:05:32;;;;;;;10.00;3.95;;;;;;;9.52;100.00;101633.78;7381113;19;20044;-67
2022/05/12 02:08:03;;;;;;;8.82;3.95;;;;;;;9.52;100.00;101636.41;7377672;19;20007;-68
2022/05/12 02:10:38;;;;;;;12.13;4.28;;;;;;;9.55;100.00;101641.75;7379309;19;20011;-67
2022/05/12 02:13:09;;;;;;;11.77;4.65;;;;;;;9.55;100.00;101646.97;7375318;19;20010;-67
2022/05/12 02:15:40;;;;;;;9.48;4.72;;;;;;;9.55;100.00;101649.59;7379598;19;20010;-67
2022/05/12 02:18:10;;;;;;;11.73;4.72;;;;;;;9.60;100.00;101644.50;7380059;19;20512;-66
2022/05/12 02:20:40;;;;;;;10.20;4.57;;;;;;;9.57;100.00;101647.03;7377826;19;20014;-67
2022/05/12 02:23:10;;;;;;;11.20;5.93;;;;;;;9.59;100.00;101654.09;7378374;19;20475;-67
2022/05/12 02:25:42;;;;;;;11.00;5.03;;;;;;;9.65;100.00;101661.22;7377769;19;20479;-66
2022/05/12 02:28:13;;;;;;;12.18;6.03;;;;;;;9.62;100.00;101663.75;7379490;19;20651;-68
2022/05/12 02:30:43;;;;;;;11.48;5.32;;;;;;;9.59;100.00;101663.66;7379068;19;20014;-67
2022/05/12 02:33:13;;;;;;;11.82;5.68;;;;;;;9.52;100.00;101658.25;7376865;19;20018;-66
2022/05/12 02:35:43;;;;;;;11.02;5.07;;;;;;;9.50;100.00;101672.13;7378175;19;20011;-68
2022/05/12 02:38:13;;;;;;;9.73;5.25;;;;;;;9.45;100.00;101665.88;7375107;19;20022;-67
2022/05/12 02:40:46;;;;;;;10.95;5.15;;;;;;;9.42;100.00;101674.50;7376805;19;20015;-66
2022/05/12 02:43:29;;;;;;;11.43;5.55;;;;;;;9.41;100.00;101675.34;7378309;19;20101;-66
2022/05/12 02:46:01;;;;;;;10.33;5.70;;;;;;;9.40;100.00;101683.16;7376372;19;20485;-67
2022/05/12 02:48:34;;;;;;;12.48;5.97;;;;;;;9.36;100.00;101686.56;7378091;19;20035;-67
2022/05/12 02:51:06;;;;;;;10.13;4.88;;;;;;;9.33;100.00;101686.47;7376768;19;20219;-66
2022/05/12 02:53:37;;;;;;;9.60;5.18;;;;;;;9.27;100.00;101689.78;7374655;19;20011;-66
2022/05/12 02:56:10;;;;;;;13.68;5.60;;;;;;;9.23;100.00;101694.84;7382094;19;20011;-66
2022/05/12 02:58:41;;;;;;;12.27;5.35;;;;;;;9.18;100.00;101698.22;7380095;19;20010;-66
2022/05/12 03:01:10;;;;;;;12.13;5.53;;;;;;;9.12;100.00;101699.75;7376883;19;20011;-67
2022/05/12 03:03:40;;;;;;;11.52;5.57;;;;;;;9.07;100.00;101703.94;7378318;19;20040;-67
2022/05/12 03:06:10;;;;;;;13.70;6.15;;;;;;;9.06;100.00;101699.53;7379753;19;20040;-66
2022/05/12 03:08:42;;;;;;;10.15;5.38;;;;;;;9.03;100.00;101707.28;7375198;19;20019;-67
2022/05/12 03:11:15;;;;;;;9.90;5.95;;;;;;;8.99;100.00;101708.03;7375352;19;20014;-68
2022/05/12 03:13:45;;;;;;;13.82;6.82;;;;;;;8.96;100.00;101714.03;7373298;19;20389;-66
2022/05/12 03:16:16;;;;;;;16.23;7.93;;;;;;;8.89;100.00;101714.66;7377002;19;20019;-67
2022/05/12 03:18:47;;;;;;;10.77;5.47;;;;;;;8.85;100.00;101718.03;7379313;19;20460;-67
2022/05/12 03:21:17;;;;;;;9.95;6.07;;;;;;;8.80;100.00;101717.84;7378161;19;20728;-67
2022/05/12 03:23:47;;;;;;;13.75;6.63;;;;;;;8.76;100.00;101723.81;7379899;19;20370;-67
2022/05/12 03:26:19;;;;;;;11.55;5.72;;;;;;;8.74;100.00;101730.72;7374595;19;20044;-66
2022/05/12 03:28:49;;;;;;;10.90;5.35;;;;;;;8.70;100.00;101741.91;7376717;19;20029;-67
2022/05/12 03:31:19;;;;;;;10.63;5.45;;;;;;;8.67;100.00;101746.16;7377886;19;20010;-66
2022/05/12 03:33:49;;;;;;;10.50;6.15;;;;;;;8.62;100.00;101750.31;7375062;19;20017;-68
2022/05/12 03:36:19;;;;;;;13.32;6.10;;;;;;;8.61;100.00;101748.53;7376782;19;20078;-66
2022/05/12 03:38:49;;;;;;;10.60;5.43;;;;;;;8.58;100.00;101749.31;7377989;19;20014;-66
2022/05/12 03:41:21;;;;;;;13.82;6.75;;;;;;;8.58;100.00;101748.44;7375726;19;20123;-66
2022/05/12 03:46:33;;;;;;;13.43;6.65;;;;;;;8.58;100.00;101754.56;7376625;19;20074;-66
2022/05/12 03:49:03;;;;;;;11.35;5.53;;;;;;;8.54;100.00;101755.28;7375159;19;20006;-67
2022/05/12 03:51:33;;;;;;;12.00;6.20;;;;;;;8.51;100.00;101763.91;7376614;19;20216;-68
2022/05/12 03:54:03;;;;;;;13.10;6.10;;;;;;;8.48;100.00;101763.78;7369503;19;20448;-66
2022/05/12 03:56:36;;;;;;;12.65;6.38;;;;;;;8.48;100.00;101768.13;7375811;19;20593;-66
2022/05/12 03:59:07;;;;;;;14.57;5.95;;;;;;;8.47;100.00;101761.13;7374904;19;20258;-67
2022/05/12 04:01:37;;;;;;;12.30;5.93;;;;;;;8.43;100.00;101762.72;7374717;19;20043;-67
2022/05/12 04:04:07;;;;;;;15.70;6.00;;;;;;;8.41;100.00;101760.91;7373298;19;20070;-67
2022/05/12 04:06:37;;;;;;;13.70;7.05;;;;;;;8.40;100.00;101772.19;7378253;19;20010;-67
2022/05/12 04:09:07;;;;;;;12.65;6.63;;;;;;;8.40;100.00;101769.56;7375714;19;20041;-68
2022/05/12 04:11:39;;;;;;;12.68;6.15;;;;;;;8.36;100.00;101775.53;7374715;19;20006;-66
2022/05/12 04:14:09;;;;;;;14.85;6.28;;;;;;;8.36;100.00;101775.53;7372047;19;20007;-66
2022/05/12 04:16:39;;;;;;;11.57;5.95;;;;;;;8.35;100.00;101782.47;7376204;19;20011;-66
2022/05/12 04:19:09;;;;;;;12.30;6.80;;;;;;;8.33;100.00;101783.25;7373752;19;20069;-67
2022/05/12 04:21:39;;;;;;;12.50;6.40;;;;;;;8.31;100.00;101788.41;7377543;19;20018;-67
2022/05/12 04:24:11;;;;;;;12.20;6.22;;;;;;;8.36;100.00;101793.81;7373823;19;20045;-66
2022/05/12 04:26:44;;;;;;;12.10;6.00;;;;;;;8.37;100.00;101791.25;7375254;19;20032;-67
2022/05/12 04:29:15;;;;;;;11.05;6.68;;;;;;;8.38;100.00;101792.16;7374852;19;20130;-66
2022/05/12 04:31:45;;;;;;;11.40;5.55;;;;;;;8.40;100.00;101791.38;7374821;19;20040;-67
2022/05/12 04:36:57;;;;;;;16.90;6.85;;;;;;;8.46;100.00;101801.16;7373282;19;20011;-67
2022/05/12 04:39:27;;;;;;;16.17;7.22;;;;;;;8.49;100.00;101807.41;7376403;19;20026;-67
2022/05/12 04:41:59;;;;;;;11.75;5.95;;;;;;;8.53;100.00;101811.03;7374582;19;20025;-67
2022/05/12 04:44:29;;;;;;;14.85;6.55;;;;;;;8.57;100.00;101815.53;7377138;19;20010;-67
2022/05/12 04:46:59;;;;;;;16.02;6.47;;;;;;;8.60;100.00;101813.03;7372392;19;20011;-67
2022/05/12 04:49:29;;;;;;;12.57;5.80;;;;;;;8.63;100.00;101820.97;7376029;19;20006;-67
2022/05/12 04:52:01;;;;;;;18.05;6.30;;;;;;;8.67;100.00;101827.22;7372360;19;20463;-68
2022/05/12 04:54:31;;;;;;;10.48;6.50;;;;;;;8.71;100.00;101824.78;7370850;19;20015;-67
2022/05/12 04:57:04;;;;;;;15.15;7.00;;;;;;;8.76;100.00;101823.22;7375465;19;20015;-67
2022/05/12 04:59:35;;;;;;;15.00;7.05;;;;;;;8.79;100.00;101825.94;7376164;19;20031;-67
2022/05/12 05:02:05;;;;;;;15.85;6.47;;;;;;;8.89;100.00;101828.88;7372569;19;20048;-69
2022/05/12 05:04:35;;;;;;;12.40;6.55;;;;;;;9.01;100.00;101829.31;7375460;19;20074;-67
2022/05/12 05:07:06;;;;;;;10.38;5.97;;;;;;;9.15;100.00;101836.81;7372669;19;20036;-67
2022/05/12 05:09:36;;;;;;;12.38;6.32;;;;;;;9.33;100.00;101840.91;7371461;19;20007;-67
2022/05/12 05:12:10;;;;;;;12.02;6.22;;;;;;;9.58;100.00;101840.88;7373267;19;20014;-67
2022/05/12 05:14:39;;;;;;;;;;;;;;;9.83;100.00;101843.44;7372765;19;20014;-67
2022/05/12 05:17:09;;;;;;;14.63;5.95;;;;;;;10.12;100.00;101848.72;7376292;19;19923;-67
2022/05/12 05:19:39;;;;;;;13.05;6.45;;;;;;;10.34;100.00;101842.44;7372553;19;20047;-67
2022/05/12 05:22:08;;;;;;;11.00;6.18;;;;;;;10.63;100.00;101846.78;7368964;19;20362;-68
2022/05/12 05:24:39;;;;;;;10.23;5.63;;;;;;;10.88;100.00;101853.63;7372747;19;20385;-67
2022/05/12 05:27:11;;;;;;;14.20;5.20;;;;;;;11.05;100.00;101852.34;7372764;19;20045;-67
2022/05/12 05:29:42;;;;;;;13.20;5.22;;;;;;;11.33;100.00;101843.47;7372703;19;20010;-67
2022/05/12 05:32:14;;;;;;;12.57;5.70;;;;;;;11.60;100.00;101847.63;7370788;19;20019;-67
2022/05/12 05:34:45;;;;;;;14.48;5.78;;;;;;;11.84;100.00;101847.38;7372939;19;20057;-67
2022/05/12 05:37:15;;;;;;;11.82;5.63;;;;;;;12.06;100.00;101855.81;7374388;19;20538;-67
2022/05/12 05:39:45;;;;;;;11.48;5.10;;;;;;;12.25;100.00;101853.59;7374247;19;20010;-68
2022/05/12 05:42:21;;;;;;;15.45;6.10;;;;;;;12.53;100.00;101869.09;7373233;19;20090;-67
2022/05/12 05:44:52;;;;;;;12.00;5.53;;;;;;;12.83;100.00;101867.97;7371953;19;20026;-67
2022/05/12 05:47:22;;;;;;;11.02;4.65;;;;;;;12.91;100.00;101874.28;7373240;19;20011;-66
2022/05/12 05:49:52;;;;;;;9.80;4.78;;;;;;;13.12;99.72;101885.25;7370043;19;20109;-67
2022/05/12 05:55:04;;;;;;;8.88;4.18;;;;;;;13.61;97.57;101886.16;7370352;19;20010;-67
2022/05/12 05:57:37;;;;;;;10.93;5.43;;;;;;;13.59;93.96;101893.16;7372823;19;20011;-68
2022/05/12 06:00:09;;;;;;;12.77;4.97;;;;;;;13.78;93.93;101897.88;7371493;19;20010;-67
2022/05/12 06:02:39;;;;;;;9.30;4.30;;;;;;;13.83;91.06;101898.84;7372375;19;20468;-67
2022/05/12 06:05:10;;;;;;;12.80;4.53;;;;;;;14.08;91.97;101906.28;7375354;19;20539;-67
2022/05/12 06:07:41;;;;;;;11.10;4.07;;;;;;;14.28;90.59;101916.28;7374113;19;20744;-67
2022/05/12 06:10:12;;;;;;;8.93;4.10;;;;;;;14.45;90.31;101914.81;7374180;19;20030;-67
2022/05/12 06:12:44;;;;;;;7.45;4.40;;;;;;;14.56;87.08;101913.19;7373441;19;20040;-68
2022/05/12 06:15:14;;;;;;;10.45;4.47;;;;;;;14.58;88.08;101916.72;7375297;19;20010;-68
2022/05/12 06:17:45;;;;;;;9.48;4.10;;;;;;;14.62;87.14;101922.94;7376707;19;20031;-68
2022/05/12 06:20:23;;;;;;;10.88;3.60;;;;;;;14.49;85.14;101931.56;7375158;19;20380;-68
2022/05/12 06:22:53;;;;;;;5.88;3.70;;;;;;;14.87;85.72;101926.78;7376634;19;20021;-67
2022/05/12 06:25:23;;;;;;;11.88;4.40;;;;;;;14.79;82.60;101929.34;7374003;19;20010;-67
2022/05/12 06:27:56;;;;;;;8.88;3.88;;;;;;;15.14;82.16;101936.81;7381328;19;20018;-68
2022/05/12 06:30:27;;;;;;;10.25;3.70;;;;;;;15.32;81.36;101945.84;7378611;19;20045;-67
2022/05/12 06:32:59;;;;;;;8.48;3.83;;;;;;;15.64;82.82;101942.66;7378131;19;20007;-68
2022/05/12 06:35:29;;;;;;;11.23;3.30;;;;;;;15.94;81.95;101940.31;7374107;19;20031;-68
2022/05/12 06:37:59;;;;;;;10.68;3.75;;;;;;;15.74;77.45;101948.94;7373512;19;20074;-67
2022/05/12 06:40:29;;;;;;;7.13;3.60;;;;;;;15.99;79.63;101945.63;7377058;19;20601;-73
2022/05/12 06:43:07;;;;;;;8.90;3.40;;;;;;;16.06;75.50;101954.50;7376263;19;20014;-76
2022/05/12 06:45:38;;;;;;;6.50;3.10;;;;;;;16.07;73.94;101949.25;7375310;19;20383;-76
2022/05/12 06:48:09;;;;;;;6.20;3.10;;;;;;;16.55;76.12;101959.31;7376613;19;20011;-76
2022/05/12 06:50:39;;;;;;;6.47;3.10;;;;;;;16.39;73.82;101960.06;7375898;19;20031;-70
2022/05/12 06:53:09;;;;;;;8.63;3.05;;;;;;;16.37;70.37;101964.47;7368302;19;20011;-70
2022/05/12 06:55:39;;;;;;;7.93;3.13;;;;;;;16.70;70.36;101960.28;7375354;19;20503;-78
2022/05/12 06:58:12;;;;;;;9.40;3.47;;;;;;;16.62;71.18;101966.41;7381984;19;20583;-70
2022/05/12 07:00:42;;;;;;;7.68;3.10;;;;;;;17.04;69.11;101967.53;7375320;19;20575;-71
2022/05/12 07:03:12;;;;;;;8.35;3.17;;;;;;;17.10;67.34;101964.91;7380158;19;20104;-71
2022/05/12 07:05:44;;;;;;;7.80;3.05;;;;;;;17.16;67.25;101974.66;7370140;19;20017;-71
2022/05/12 07:08:15;;;;;;;7.95;2.95;;;;;;;17.24;65.72;101973.81;7374480;19;21376;-71
2022/05/12 07:10:45;;;;;;;11.32;3.15;;;;;;;17.19;65.43;101979.97;7374772;19;20006;-71
2022/05/12 07:13:21;;;;;;;10.55;2.75;;;;;;;17.46;65.03;101984.50;7372501;19;20018;-70
2022/05/12 07:15:52;;;;;;;6.07;2.63;;;;;;;17.79;64.50;101983.69;7370158;19;20697;-70
2022/05/12 07:18:23;;;;;;;8.27;3.33;;;;;;;17.64;63.02;101984.53;7378431;19;20738;-71
2022/05/12 07:26:42;;;;;;;7.03;2.92;;;;;;;17.89;59.93;101994.31;7373023;19;20078;-79
2022/05/12 07:29:18;;;;;;;8.20;3.08;;;;;;;18.06;59.65;101993.47;7374097;19;20086;-77
2022/05/12 07:31:49;;;;;;;6.20;2.97;;;;;;;18.21;59.27;102001.44;7376235;19;20400;-78
2022/05/12 07:34:21;;;;;;;11.35;3.45;;;;;;;18.38;58.63;101999.66;7377864;19;20010;-79
2022/05/12 07:36:53;;;;;;;9.90;3.20;;;;;;;18.56;59.85;101996.09;7371557;19;20018;-77
2022/05/12 07:39:27;;;;;;;9.95;3.40;;;;;;;18.48;59.97;101998.78;7370630;19;20025;-70
2022/05/12 07:41:58;;;;;;;7.75;2.75;;;;;;;18.71;58.32;101995.22;7373823;19;20002;-78
2022/05/12 07:44:38;;;;;;;10.20;3.40;;;;;;;18.70;57.08;102002.31;7374060;19;20014;-78
2022/05/12 07:47:13;;;;;;;7.45;3.08;;;;;;;18.94;56.91;101999.56;7373661;19;20011;-78
2022/05/12 07:49:44;;;;;;;6.50;3.10;;;;;;;18.70;54.29;101999.66;7374838;19;20022;-77
2022/05/12 07:52:15;;;;;;;8.43;2.78;;;;;;;19.25;55.26;101995.03;7369441;19;20423;-71
2022/05/12 07:54:46;;;;;;;7.43;2.92;;;;;;;19.20;55.77;101995.94;7373110;19;20066;-71
2022/05/12 07:57:21;;;;;;;5.15;2.60;;;;;;;19.04;55.24;101997.78;7375201;19;20010;-78
2022/05/12 07:59:53;;;;;;;8.20;3.10;;;;;;;19.49;54.01;102007.34;7372794;19;20014;-78
2022/05/12 08:02:24;;;;;;;7.63;3.10;;;;;;;18.98;53.52;102013.75;7371243;19;20480;-79
2022/05/12 08:04:57;;;;;;;6.25;2.72;;;;;;;19.08;51.96;102003.97;7376694;19;20445;-70
2022/05/12 08:07:27;;;;;;;6.93;2.63;;;;;;;18.83;51.50;102011.13;7377865;19;20011;-71
2022/05/12 08:10:00;;;;;;;7.32;3.35;;;;;;;19.02;51.95;102010.19;7375830;19;20093;-71
2022/05/12 08:12:31;;;;;;;7.37;2.80;;;;;;;19.54;52.60;102013.56;7375981;19;20360;-78
2022/05/12 08:15:04;;;;;;;4.18;2.10;;;;;;;19.08;51.84;102010.16;7375245;19;20329;-78
2022/05/12 08:17:33;;;;;;;6.53;2.63;;;;;;;19.64;51.81;102008.19;7377562;19;20021;-78
2022/05/12 08:20:05;;;;;;;4.55;2.15;;;;;;;19.06;51.16;102013.72;7375459;19;21608;-78
2022/05/12 08:22:35;;;;;;;4.07;2.25;;;;;;;19.51;51.92;102015.31;7371530;19;20014;-78
2022/05/12 08:25:07;;;;;;;6.68;3.03;;;;;;;19.77;51.34;102009.84;7370503;19;20011;-78
2022/05/12 08:27:38;;;;;;;4.72;2.17;;;;;;;19.73;48.99;102014.34;7373895;19;20014;-77
2022/05/12 08:30:15;;;;;;;5.18;2.00;;;;;;;19.52;49.18;102019.78;7373174;19;20030;-77
2022/05/12 08:32:45;;;;;;;4.63;2.35;;;;;;;19.66;48.94;102019.72;7368228;19;20039;-79
2022/05/12 08:35:16;;;;;;;7.03;2.47;;;;;;;19.04;48.59;102019.03;7368087;19;20011;-77
2022/05/12 08:37:49;;;;;;;6.07;2.40;;;;;;;19.28;49.87;102021.63;7375338;19;20014;-77
2022/05/12 08:40:30;;;;;;;4.97;2.13;;;;;;;19.79;48.78;102035.56;7378896;19;20015;-77
2022/05/12 08:43:11;;;;;;;7.63;2.33;;;;;;;19.38;49.01;102032.22;7373380;19;20058;-78
2022/05/12 08:45:45;;;;;;;6.65;2.30;;;;;;;20.31;48.55;102035.22;7373824;19;20042;-77
2022/05/12 08:48:17;;;;;;;5.97;2.03;;;;;;;20.23;47.86;102031.72;7373526;19;20017;-78
2022/05/12 08:50:53;;;;;;;6.50;1.98;;;;;;;20.60;47.20;102028.78;7371049;19;20027;-71
2022/05/12 08:53:30;;;;;;;3.13;1.90;;;;;;;20.72;47.05;102036.66;7371940;19;20022;-70
2022/05/12 08:56:01;;;;;;;5.25;1.92;;;;;;;20.21;45.35;102044.16;7376638;19;20508;-71
2022/05/12 08:58:35;;;;;;;6.05;2.58;;;;;;;19.93;46.98;102039.03;7377580;19;20483;-72
2022/05/12 09:01:14;;;;;;;4.80;1.95;;;;;;;20.09;47.85;102034.50;7377574;19;20006;-71
2022/05/12 09:03:58;;;;;;;6.78;2.30;;;;;;;20.70;47.10;102035.81;7379548;19;20014;-70
2022/05/12 09:06:34;;;;;;;5.10;1.90;;;;;;;21.12;46.00;102032.66;7377464;19;20410;-70
2022/05/12 09:09:18;;;;;;;7.10;2.42;;;;;;;20.65;46.40;102037.63;7372595;19;20494;-71
2022/05/12 09:11:59;;;;;;;5.43;2.22;;;;;;;20.53;46.36;102030.63;7377501;19;20018;-71
2022/05/12 09:14:38;;;;;;;7.00;2.30;;;;;;;20.86;45.80;102032.94;7374628;19;20022;-71
2022/05/12 09:17:22;;;;;;;7.63;2.47;;;;;;;20.41;46.04;102034.28;7373006;19;20191;-71
2022/05/12 09:19:55;;;;;;;2.45;1.70;;;;;;;20.94;45.48;102035.53;7376402;19;20021;-71
2022/05/12 09:22:28;;;;;;;5.55;2.50;;;;;;;20.87;45.44;102034.69;7377458;19;20267;-71
2022/05/12 09:25:01;;;;;;;4.35;2.10;;;;;;;20.70;46.34;102036.69;7376556;19;20386;-71
2022/05/12 09:27:33;;;;;;;7.60;2.40;;;;;;;21.04;44.59;102046.97;7378217;19;20074;-71
2022/05/12 09:30:10;;;;;;;6.90;2.50;;;;;;;19.84;45.51;102051.50;7375437;19;20014;-72
2022/05/12 09:32:46;;;;;;;5.88;2.22;;;;;;;20.38;44.33;102042.28;7375321;19;20011;-71
2022/05/12 09:35:32;;;;;;;4.50;2.03;;;;;;;20.69;44.73;102042.03;7375155;19;20003;-71
2022/05/12 09:38:27;;;;;;;5.90;2.20;;;;;;;20.66;43.47;102042.06;7379679;19;20010;-73
2022/05/12 09:41:15;;;;;;;8.57;2.40;;;;;;;20.74;45.13;102041.09;7376022;19;20035;-71
2022/05/12 09:44:00;;;;;;;6.43;2.30;;;;;;;20.68;44.41;102037.59;7377075;19;20267;-71
2022/05/12 09:46:31;;;;;;;4.38;2.03;;;;;;;20.71;44.27;102037.56;7381185;19;20039;-77
2022/05/12 09:49:23;;;;;;;6.70;2.53;;;;;;;20.67;43.55;102035.81;7375959;19;20084;-79
2022/05/12 09:51:53;;;;;;;6.97;2.50;;;;;;;20.75;44.98;102039.31;7382010;19;20014;-79
2022/05/12 09:54:28;;;;;;;8.77;2.88;;;;;;;20.21;45.37;102033.53;7378086;19;20382;-79
2022/05/12 09:57:06;;;;;;;6.72;2.15;;;;;;;20.64;44.87;102044.75;7375884;19;20013;-77
2022/05/12 09:59:36;;;;;;;6.70;2.70;;;;;;;20.43;43.17;102045.81;7379833;19;20014;-78
2022/05/12 10:02:09;;;;;;;4.40;2.22;;;;;;;20.88;44.50;102044.47;7379552;19;20040;-79
2022/05/12 10:08:04;;;;;;;5.93;2.10;;;;;;;20.18;42.35;102049.53;7372413;19;20066;-67
2022/05/12 10:10:35;;;;;;;5.70;2.00;;;;;;;19.93;42.99;102043.47;7375265;19;20030;-68
2022/05/12 10:13:14;;;;;;;6.28;2.20;;;;;;;20.03;43.32;102055.84;7374879;19;20069;-68
2022/05/12 10:15:56;;;;;;;6.60;2.25;;;;;;;20.37;42.51;102036.94;7377031;19;20013;-68
2022/05/12 10:18:33;;;;;;;5.40;1.90;;;;;;;20.34;42.05;102045.84;7379244;19;20010;-68
2022/05/12 10:21:15;;;;;;;5.72;2.22;;;;;;;20.64;44.30;102044.75;7378028;19;20044;-67
2022/05/12 10:23:57;;;;;;;4.72;2.30;;;;;;;20.52;43.50;102045.72;7381600;19;20006;-69
2022/05/12 10:26:38;;;;;;;6.93;2.30;;;;;;;20.85;43.48;102049.81;7380911;19;20007;-67
2022/05/12 10:29:30;;;;;;;6.88;2.30;;;;;;;20.86;43.36;102045.38;7376829;19;20030;-67
2022/05/12 10:32:12;;;;;;;6.20;2.40;;;;;;;21.05;44.00;102044.28;7375375;19;20484;-67
2022/05/12 10:34:52;;;;;;;6.70;2.33;;;;;;;21.28;42.34;102037.84;7380165;19;20007;-67
2022/05/12 10:37:45;;;;;;;5.47;2.42;;;;;;;20.76;43.11;102039.28;7373732;19;20144;-68
2022/05/12 10:40:26;;;;;;;7.60;2.60;;;;;;;21.51;43.49;102042.00;7376289;19;20086;-69
2022/05/12 10:43:03;;;;;;;6.05;2.38;;;;;;;21.29;41.23;102047.63;7378616;19;20014;-69
2022/05/12 10:45:40;;;;;;;5.95;2.22;;;;;;;21.15;42.13;102045.97;7379830;19;20019;-74
2022/05/12 10:48:30;;;;;;;5.97;2.20;;;;;;;20.44;41.95;102044.03;7374516;19;20011;-66
2022/05/12 10:51:03;;;;;;;8.50;3.15;;;;;;;20.80;43.13;102042.81;7379971;19;20022;-67
2022/05/12 10:53:48;;;;;;;5.22;2.42;;;;;;;20.71;42.68;102045.56;7371479;19;20007;-67
2022/05/12 10:56:31;;;;;;;5.25;2.60;;;;;;;20.59;42.91;102040.34;7377437;19;20029;-65
2022/05/12 10:59:24;;;;;;;5.70;2.25;;;;;;;20.11;43.81;102035.38;7375109;19;20028;-67
2022/05/12 11:02:00;;;;;;;5.35;2.30;;;;;;;20.03;42.67;102030.97;7373248;19;20006;-68
2022/05/12 11:04:37;;;;;;;5.00;1.90;;;;;;;20.47;42.31;102031.56;7375624;19;20017;-67
2022/05/12 11:07:11;;;;;;;6.68;2.17;;;;;;;20.42;42.58;102036.03;7376086;19;20489;-68
2022/05/12 11:10:04;;;;;;;6.37;2.07;;;;;;;19.59;42.38;102042.81;7377315;19;20038;-68
2022/05/12 11:12:43;;;;;;;3.40;2.10;;;;;;;19.83;43.14;102033.78;7374682;19;20263;-69
2022/05/12 11:15:21;;;;;;;2.83;1.73;;;;;;;19.93;42.38;102030.16;7379173;19;20014;-69
2022/05/12 11:17:58;;;;;;;5.93;2.00;;;;;;;20.25;42.10;102030.81;7374029;19;20010;-69
2022/05/12 11:20:32;;;;;;;6.25;2.20;;;;;;;20.24;41.84;102026.38;7377280;19;20365;-69
2022/05/12 11:23:19;;;;;;;4.68;1.98;;;;;;;19.97;40.76;102023.03;7379557;19;20020;-68
2022/05/12 11:26:04;;;;;;;7.75;2.30;;;;;;;20.44;41.84;102028.03;7379540;19;20039;-74
2022/05/12 11:31:37;;;;;;;5.75;2.63;;;;;;;21.39;39.97;102025.25;7382377;19;20023;-73
2022/05/12 11:34:11;;;;;;;6.60;2.00;;;;;;;21.10;39.89;102026.44;7378257;19;20014;-73
2022/05/12 11:36:44;;;;;;;4.68;2.15;;;;;;;20.89;39.60;102030.22;7376658;19;20014;-67
2022/05/12 11:39:27;;;;;;;6.07;2.10;;;;;;;21.20;40.36;102024.56;7373770;19;20026;-69
2022/05/12 11:42:18;;;;;;;7.53;2.20;;;;;;;21.03;40.98;102029.19;7381945;19;20021;-75
2022/05/12 11:44:59;;;;;;;7.13;2.42;;;;;;;21.01;41.18;102029.22;7378756;19;20011;-75
2022/05/12 11:47:54;;;;;;;7.10;2.35;;;;;;;21.40;40.28;102032.34;7378961;19;20020;-74
2022/05/12 11:50:51;;;;;;;5.82;2.03;;;;;;;21.22;38.92;102025.47;7381252;19;20018;-74
2022/05/12 11:53:23;;;;;;;6.35;2.22;;;;;;;21.20;39.79;102020.09;7375319;19;20010;-74
2022/05/12 11:56:04;;;;;;;6.93;2.53;;;;;;;21.56;39.08;102025.91;7377585;19;20013;-74
2022/05/12 11:58:49;;;;;;;3.70;2.00;;;;;;;21.77;40.52;102028.28;7377752;19;20011;-73
2022/05/12 12:01:52;;;;;;;4.30;2.05;;;;;;;20.77;39.01;102022.41;7379278;19;20461;-73
2022/05/12 12:04:50;;;;;;;4.70;1.98;;;;;;;20.86;39.37;102018.72;7379516;19;20011;-73
2022/05/12 12:07:50;;;;;;;5.75;2.28;;;;;;;21.43;40.43;102024.31;7376462;19;20294;-73
2022/05/12 12:10:33;;;;;;;6.30;2.35;;;;;;;21.42;38.91;102022.53;7375199;19;20435;-74
2022/05/12 12:13:07;;;;;;;;;;;;;;;21.53;38.94;102023.28;7377503;19;20013;-68